sensor_id;sensor_type;location;lat;lon;timestamp;P1;durP1;ratioP1;P2;durP2;ratioP2
63114;SDS011;49208;50.874;6.466;2022-08-03T00:01:18;7.53;;;3.65;;
63114;SDS011;49208;50.874;6.466;2022-08-03T00:03:44;7.40;;;3.92;;
63114;SDS011;49208;50.874;6.466;2022-08-03T00:06:09;7.85;;;3.97;;
63114;SDS011;49208;50.874;6.466;2022-08-03T00:08:35;6.63;;;3.42;;
63114;SDS011;49208;50.874;6.466;2022-08-03T00:11:00;7.57;;;3.67;;
63114;SDS011;49208;50.874;6.466;2022-08-03T00:13:26;7.05;;;3.45;;
63114;SDS011;49208;50.874;6.466;2022-08-03T00:15:52;6.50;;;4.03;;
63114;SDS011;49208;50.874;6.466;2022-08-03T00:18:18;6.80;;;3.50;;
63114;SDS011;49208;50.874;6.466;2022-08-03T00:20:44;6.05;;;3.38;;
63114;SDS011;49208;50.874;6.466;2022-08-03T00:23:09;6.93;;;3.63;;
63114;SDS011;49208;50.874;6.466;2022-08-03T00:25:35;7.28;;;3.50;;
63114;SDS011;49208;50.874;6.466;2022-08-03T00:28:01;6.35;;;3.30;;
63114;SDS011;49208;50.874;6.466;2022-08-03T00:30:28;6.55;;;3.38;;
63114;SDS011;49208;50.874;6.466;2022-08-03T00:32:53;7.72;;;3.33;;
63114;SDS011;49208;50.874;6.466;2022-08-03T00:35:19;5.00;;;2.80;;
63114;SDS011;49208;50.874;6.466;2022-08-03T00:37:45;6.80;;;3.40;;
63114;SDS011;49208;50.874;6.466;2022-08-03T00:40:11;7.35;;;3.50;;
63114;SDS011;49208;50.874;6.466;2022-08-03T00:42:48;8.27;;;4.13;;
63114;SDS011;49208;50.874;6.466;2022-08-03T00:45:19;8.73;;;3.45;;
63114;SDS011;49208;50.874;6.466;2022-08-03T00:47:46;7.95;;;3.60;;
63114;SDS011;49208;50.874;6.466;2022-08-03T00:50:12;6.22;;;3.15;;
63114;SDS011;49208;50.874;6.466;2022-08-03T00:52:37;6.13;;;3.78;;
63114;SDS011;49208;50.874;6.466;2022-08-03T00:55:03;6.53;;;2.88;;
63114;SDS011;49208;50.874;6.466;2022-08-03T00:57:29;5.95;;;3.08;;
63114;SDS011;49208;50.874;6.466;2022-08-03T00:59:56;6.18;;;3.20;;
63114;SDS011;49208;50.874;6.466;2022-08-03T01:02:24;6.57;;;3.28;;
63114;SDS011;49208;50.874;6.466;2022-08-03T01:04:50;5.88;;;3.88;;
63114;SDS011;49208;50.874;6.466;2022-08-03T01:10:12;6.40;;;3.30;;
63114;SDS011;49208;50.874;6.466;2022-08-03T01:20:33;6.50;;;3.42;;
63114;SDS011;49208;50.874;6.466;2022-08-03T01:25:50;7.28;;;3.35;;
63114;SDS011;49208;50.874;6.466;2022-08-03T01:31:28;7.60;;;3.65;;
63114;SDS011;49208;50.874;6.466;2022-08-03T01:34:01;5.80;;;3.47;;
63114;SDS011;49208;50.874;6.466;2022-08-03T01:36:42;6.30;;;3.30;;
63114;SDS011;49208;50.874;6.466;2022-08-03T01:39:12;7.75;;;3.53;;
63114;SDS011;49208;50.874;6.466;2022-08-03T01:41:53;6.38;;;2.90;;
63114;SDS011;49208;50.874;6.466;2022-08-03T01:44:23;5.32;;;3.25;;
63114;SDS011;49208;50.874;6.466;2022-08-03T01:46:51;5.78;;;2.90;;
63114;SDS011;49208;50.874;6.466;2022-08-03T01:49:18;6.70;;;3.30;;
63114;SDS011;49208;50.874;6.466;2022-08-03T01:51:44;7.53;;;3.33;;
63114;SDS011;49208;50.874;6.466;2022-08-03T01:54:12;8.57;;;3.10;;
63114;SDS011;49208;50.874;6.466;2022-08-03T01:56:39;5.00;;;3.30;;
63114;SDS011;49208;50.874;6.466;2022-08-03T01:59:07;7.60;;;3.47;;
63114;SDS011;49208;50.874;6.466;2022-08-03T02:01:35;6.22;;;3.30;;
63114;SDS011;49208;50.874;6.466;2022-08-03T02:04:01;6.55;;;3.10;;
63114;SDS011;49208;50.874;6.466;2022-08-03T02:06:29;7.10;;;3.63;;
63114;SDS011;49208;50.874;6.466;2022-08-03T02:08:57;7.85;;;3.40;;
63114;SDS011;49208;50.874;6.466;2022-08-03T02:11:24;5.95;;;3.20;;
63114;SDS011;49208;50.874;6.466;2022-08-03T02:13:50;7.00;;;3.45;;
63114;SDS011;49208;50.874;6.466;2022-08-03T02:16:17;6.82;;;3.40;;
63114;SDS011;49208;50.874;6.466;2022-08-03T02:18:45;6.30;;;3.30;;
63114;SDS011;49208;50.874;6.466;2022-08-03T02:21:12;7.22;;;3.55;;
63114;SDS011;49208;50.874;6.466;2022-08-03T02:23:39;7.82;;;3.45;;
63114;SDS011;49208;50.874;6.466;2022-08-03T02:26:05;8.23;;;4.00;;
63114;SDS011;49208;50.874;6.466;2022-08-03T02:28:36;7.03;;;3.53;;
63114;SDS011;49208;50.874;6.466;2022-08-03T02:31:06;6.90;;;3.33;;
63114;SDS011;49208;50.874;6.466;2022-08-03T02:33:39;7.70;;;3.78;;
63114;SDS011;49208;50.874;6.466;2022-08-03T02:36:07;7.72;;;3.78;;
63114;SDS011;49208;50.874;6.466;2022-08-03T02:38:36;5.65;;;3.13;;
63114;SDS011;49208;50.874;6.466;2022-08-03T02:41:06;5.55;;;3.15;;
63114;SDS011;49208;50.874;6.466;2022-08-03T02:43:35;6.43;;;3.70;;
63114;SDS011;49208;50.874;6.466;2022-08-03T02:46:04;6.03;;;3.25;;
63114;SDS011;49208;50.874;6.466;2022-08-03T02:48:32;6.72;;;3.53;;
63114;SDS011;49208;50.874;6.466;2022-08-03T02:51:00;6.03;;;3.20;;
63114;SDS011;49208;50.874;6.466;2022-08-03T02:55:54;7.35;;;3.97;;
63114;SDS011;49208;50.874;6.466;2022-08-03T02:58:21;6.15;;;3.55;;
63114;SDS011;49208;50.874;6.466;2022-08-03T03:00:49;6.38;;;2.88;;
63114;SDS011;49208;50.874;6.466;2022-08-03T03:03:16;7.30;;;3.63;;
63114;SDS011;49208;50.874;6.466;2022-08-03T03:05:43;8.70;;;4.55;;
63114;SDS011;49208;50.874;6.466;2022-08-03T03:08:13;9.00;;;3.95;;
63114;SDS011;49208;50.874;6.466;2022-08-03T03:10:40;8.98;;;3.90;;
63114;SDS011;49208;50.874;6.466;2022-08-03T03:13:06;8.10;;;4.78;;
63114;SDS011;49208;50.874;6.466;2022-08-03T03:15:32;8.40;;;4.70;;
63114;SDS011;49208;50.874;6.466;2022-08-03T03:18:01;9.48;;;5.43;;
63114;SDS011;49208;50.874;6.466;2022-08-03T03:20:27;9.15;;;5.03;;
63114;SDS011;49208;50.874;6.466;2022-08-03T03:22:53;9.25;;;5.20;;
63114;SDS011;49208;50.874;6.466;2022-08-03T03:25:19;8.68;;;4.63;;
63114;SDS011;49208;50.874;6.466;2022-08-03T03:27:45;7.90;;;4.75;;
63114;SDS011;49208;50.874;6.466;2022-08-03T03:30:12;9.30;;;5.43;;
63114;SDS011;49208;50.874;6.466;2022-08-03T03:32:38;9.07;;;4.72;;
63114;SDS011;49208;50.874;6.466;2022-08-03T03:35:04;9.60;;;5.70;;
63114;SDS011;49208;50.874;6.466;2022-08-03T03:37:31;8.73;;;5.13;;
63114;SDS011;49208;50.874;6.466;2022-08-03T03:39:56;6.90;;;4.57;;
63114;SDS011;49208;50.874;6.466;2022-08-03T03:42:22;8.45;;;4.97;;
63114;SDS011;49208;50.874;6.466;2022-08-03T03:44:48;10.57;;;5.07;;
63114;SDS011;49208;50.874;6.466;2022-08-03T03:47:14;7.35;;;4.28;;
63114;SDS011;49208;50.874;6.466;2022-08-03T03:49:39;8.35;;;4.90;;
63114;SDS011;49208;50.874;6.466;2022-08-03T03:52:06;8.00;;;4.40;;
63114;SDS011;49208;50.874;6.466;2022-08-03T03:54:41;7.25;;;4.47;;
63114;SDS011;49208;50.874;6.466;2022-08-03T03:57:08;7.85;;;4.80;;
63114;SDS011;49208;50.874;6.466;2022-08-03T03:59:41;7.60;;;4.57;;
63114;SDS011;49208;50.874;6.466;2022-08-03T04:02:08;10.65;;;5.03;;
63114;SDS011;49208;50.874;6.466;2022-08-03T04:04:35;10.00;;;4.68;;
63114;SDS011;49208;50.874;6.466;2022-08-03T04:07:20;10.07;;;5.10;;
63114;SDS011;49208;50.874;6.466;2022-08-03T04:10:09;7.40;;;3.97;;
63114;SDS011;49208;50.874;6.466;2022-08-03T04:12:59;9.88;;;5.28;;
63114;SDS011;49208;50.874;6.466;2022-08-03T04:15:26;8.25;;;5.65;;
63114;SDS011;49208;50.874;6.466;2022-08-03T04:17:54;11.32;;;5.82;;
63114;SDS011;49208;50.874;6.466;2022-08-03T04:20:23;9.27;;;5.30;;
63114;SDS011;49208;50.874;6.466;2022-08-03T04:22:52;7.72;;;4.95;;
63114;SDS011;49208;50.874;6.466;2022-08-03T04:25:19;9.00;;;4.82;;
63114;SDS011;49208;50.874;6.466;2022-08-03T04:27:49;9.77;;;5.07;;
63114;SDS011;49208;50.874;6.466;2022-08-03T04:32:42;10.02;;;5.97;;
63114;SDS011;49208;50.874;6.466;2022-08-03T04:35:14;10.68;;;5.78;;
63114;SDS011;49208;50.874;6.466;2022-08-03T04:37:41;12.48;;;7.43;;
63114;SDS011;49208;50.874;6.466;2022-08-03T04:40:12;11.60;;;6.63;;
63114;SDS011;49208;50.874;6.466;2022-08-03T04:42:39;14.02;;;7.10;;
63114;SDS011;49208;50.874;6.466;2022-08-03T04:45:07;9.27;;;6.25;;
63114;SDS011;49208;50.874;6.466;2022-08-03T04:47:36;11.02;;;5.72;;
63114;SDS011;49208;50.874;6.466;2022-08-03T04:50:03;11.13;;;6.10;;
63114;SDS011;49208;50.874;6.466;2022-08-03T04:52:30;7.85;;;5.50;;
63114;SDS011;49208;50.874;6.466;2022-08-03T04:54:56;7.80;;;5.15;;
63114;SDS011;49208;50.874;6.466;2022-08-03T04:57:22;8.80;;;5.88;;
63114;SDS011;49208;50.874;6.466;2022-08-03T04:59:47;9.45;;;5.65;;
63114;SDS011;49208;50.874;6.466;2022-08-03T05:02:16;10.05;;;6.22;;
63114;SDS011;49208;50.874;6.466;2022-08-03T05:04:42;9.80;;;6.18;;
63114;SDS011;49208;50.874;6.466;2022-08-03T05:07:10;10.77;;;5.90;;
63114;SDS011;49208;50.874;6.466;2022-08-03T05:09:39;8.15;;;5.95;;
63114;SDS011;49208;50.874;6.466;2022-08-03T05:12:05;9.63;;;6.13;;
63114;SDS011;49208;50.874;6.466;2022-08-03T05:14:31;10.17;;;6.67;;
63114;SDS011;49208;50.874;6.466;2022-08-03T05:17:04;8.77;;;5.50;;
63114;SDS011;49208;50.874;6.466;2022-08-03T05:19:29;13.45;;;6.18;;
63114;SDS011;49208;50.874;6.466;2022-08-03T05:21:55;8.68;;;5.57;;
63114;SDS011;49208;50.874;6.466;2022-08-03T05:24:20;10.70;;;6.28;;
63114;SDS011;49208;50.874;6.466;2022-08-03T05:26:46;8.23;;;4.97;;
63114;SDS011;49208;50.874;6.466;2022-08-03T05:29:11;8.43;;;4.80;;
63114;SDS011;49208;50.874;6.466;2022-08-03T05:31:36;8.45;;;4.60;;
63114;SDS011;49208;50.874;6.466;2022-08-03T05:34:02;7.90;;;4.40;;
63114;SDS011;49208;50.874;6.466;2022-08-03T05:36:27;7.20;;;4.70;;
63114;SDS011;49208;50.874;6.466;2022-08-03T05:38:52;11.93;;;4.32;;
63114;SDS011;49208;50.874;6.466;2022-08-03T05:41:18;6.68;;;3.75;;
63114;SDS011;49208;50.874;6.466;2022-08-03T05:43:43;6.43;;;3.95;;
63114;SDS011;49208;50.874;6.466;2022-08-03T05:46:09;6.05;;;3.42;;
63114;SDS011;49208;50.874;6.466;2022-08-03T05:48:35;6.43;;;3.78;;
63114;SDS011;49208;50.874;6.466;2022-08-03T05:51:00;6.00;;;3.42;;
63114;SDS011;49208;50.874;6.466;2022-08-03T05:53:25;5.28;;;2.92;;
63114;SDS011;49208;50.874;6.466;2022-08-03T05:55:51;6.32;;;3.05;;
63114;SDS011;49208;50.874;6.466;2022-08-03T05:58:16;6.47;;;3.15;;
63114;SDS011;49208;50.874;6.466;2022-08-03T06:00:42;4.45;;;2.40;;
63114;SDS011;49208;50.874;6.466;2022-08-03T06:03:07;8.13;;;2.58;;
63114;SDS011;49208;50.874;6.466;2022-08-03T06:05:32;4.55;;;2.47;;
63114;SDS011;49208;50.874;6.466;2022-08-03T06:08:00;4.82;;;2.60;;
63114;SDS011;49208;50.874;6.466;2022-08-03T06:10:26;5.63;;;3.10;;
63114;SDS011;49208;50.874;6.466;2022-08-03T06:12:51;6.70;;;3.23;;
63114;SDS011;49208;50.874;6.466;2022-08-03T06:15:17;9.73;;;2.73;;
63114;SDS011;49208;50.874;6.466;2022-08-03T06:17:48;5.97;;;2.73;;
63114;SDS011;49208;50.874;6.466;2022-08-03T06:20:15;6.75;;;2.90;;
63114;SDS011;49208;50.874;6.466;2022-08-03T06:22:42;7.45;;;3.03;;
63114;SDS011;49208;50.874;6.466;2022-08-03T06:25:08;5.00;;;2.80;;
63114;SDS011;49208;50.874;6.466;2022-08-03T06:27:33;3.95;;;2.40;;
63114;SDS011;49208;50.874;6.466;2022-08-03T06:30:00;7.03;;;2.67;;
63114;SDS011;49208;50.874;6.466;2022-08-03T06:32:26;5.35;;;2.67;;
63114;SDS011;49208;50.874;6.466;2022-08-03T06:34:52;8.82;;;2.83;;
63114;SDS011;49208;50.874;6.466;2022-08-03T06:39:43;5.43;;;2.47;;
63114;SDS011;49208;50.874;6.466;2022-08-03T06:44:34;8.80;;;2.53;;
63114;SDS011;49208;50.874;6.466;2022-08-03T06:47:01;6.53;;;2.28;;
63114;SDS011;49208;50.874;6.466;2022-08-03T06:51:52;5.10;;;1.90;;
63114;SDS011;49208;50.874;6.466;2022-08-03T06:54:18;8.48;;;2.00;;
63114;SDS011;49208;50.874;6.466;2022-08-03T06:56:46;3.38;;;1.77;;
63114;SDS011;49208;50.874;6.466;2022-08-03T06:59:11;5.20;;;2.00;;
63114;SDS011;49208;50.874;6.466;2022-08-03T07:01:37;7.22;;;2.10;;
63114;SDS011;49208;50.874;6.466;2022-08-03T07:04:02;6.53;;;2.20;;
63114;SDS011;49208;50.874;6.466;2022-08-03T07:06:28;7.28;;;1.65;;
63114;SDS011;49208;50.874;6.466;2022-08-03T07:08:53;7.63;;;1.98;;
63114;SDS011;49208;50.874;6.466;2022-08-03T07:11:18;6.30;;;1.83;;
63114;SDS011;49208;50.874;6.466;2022-08-03T07:13:44;5.50;;;1.65;;
63114;SDS011;49208;50.874;6.466;2022-08-03T07:16:09;5.97;;;1.90;;
63114;SDS011;49208;50.874;6.466;2022-08-03T07:18:38;4.32;;;1.83;;
63114;SDS011;49208;50.874;6.466;2022-08-03T07:21:04;5.30;;;1.85;;
63114;SDS011;49208;50.874;6.466;2022-08-03T07:28:20;6.27;;;1.70;;
63114;SDS011;49208;50.874;6.466;2022-08-03T07:33:11;4.32;;;1.80;;
63114;SDS011;49208;50.874;6.466;2022-08-03T07:38:02;7.67;;;2.10;;
63114;SDS011;49208;50.874;6.466;2022-08-03T07:40:27;5.88;;;1.85;;
63114;SDS011;49208;50.874;6.466;2022-08-03T07:42:53;4.15;;;1.63;;
63114;SDS011;49208;50.874;6.466;2022-08-03T07:45:18;4.97;;;1.80;;
63114;SDS011;49208;50.874;6.466;2022-08-03T07:47:45;5.45;;;1.83;;
63114;SDS011;49208;50.874;6.466;2022-08-03T07:50:10;3.80;;;1.63;;
63114;SDS011;49208;50.874;6.466;2022-08-03T07:52:36;4.97;;;1.80;;
63114;SDS011;49208;50.874;6.466;2022-08-03T07:55:14;6.43;;;1.65;;
63114;SDS011;49208;50.874;6.466;2022-08-03T07:57:43;4.97;;;1.90;;
63114;SDS011;49208;50.874;6.466;2022-08-03T08:00:13;7.03;;;1.88;;
63114;SDS011;49208;50.874;6.466;2022-08-03T08:02:41;4.22;;;1.83;;
63114;SDS011;49208;50.874;6.466;2022-08-03T08:05:07;4.80;;;1.70;;
63114;SDS011;49208;50.874;6.466;2022-08-03T08:07:35;6.63;;;1.92;;
63114;SDS011;49208;50.874;6.466;2022-08-03T08:10:02;5.13;;;1.80;;
63114;SDS011;49208;50.874;6.466;2022-08-03T08:12:29;4.93;;;2.03;;
63114;SDS011;49208;50.874;6.466;2022-08-03T08:14:54;6.47;;;1.87;;
63114;SDS011;49208;50.874;6.466;2022-08-03T08:17:19;7.20;;;1.80;;
63114;SDS011;49208;50.874;6.466;2022-08-03T08:19:45;4.47;;;2.00;;
63114;SDS011;49208;50.874;6.466;2022-08-03T08:22:10;3.90;;;1.90;;
63114;SDS011;49208;50.874;6.466;2022-08-03T08:24:36;4.05;;;1.60;;
63114;SDS011;49208;50.874;6.466;2022-08-03T08:27:01;3.90;;;1.60;;
63114;SDS011;49208;50.874;6.466;2022-08-03T08:29:27;3.87;;;1.50;;
63114;SDS011;49208;50.874;6.466;2022-08-03T08:31:52;5.47;;;1.97;;
63114;SDS011;49208;50.874;6.466;2022-08-03T08:34:17;4.10;;;1.93;;
63114;SDS011;49208;50.874;6.466;2022-08-03T08:36:43;4.33;;;1.87;;
63114;SDS011;49208;50.874;6.466;2022-08-03T08:39:08;5.23;;;2.43;;
63114;SDS011;49208;50.874;6.466;2022-08-03T08:41:34;5.13;;;1.60;;
63114;SDS011;49208;50.874;6.466;2022-08-03T08:43:59;4.40;;;1.70;;
63114;SDS011;49208;50.874;6.466;2022-08-03T08:46:25;6.63;;;1.85;;
63114;SDS011;49208;50.874;6.466;2022-08-03T08:48:52;5.93;;;1.92;;
63114;SDS011;49208;50.874;6.466;2022-08-03T08:51:19;5.50;;;1.95;;
63114;SDS011;49208;50.874;6.466;2022-08-03T08:53:47;6.38;;;1.95;;
63114;SDS011;49208;50.874;6.466;2022-08-03T08:56:15;8.88;;;1.85;;
63114;SDS011;49208;50.874;6.466;2022-08-03T09:01:11;4.20;;;1.40;;
63114;SDS011;49208;50.874;6.466;2022-08-03T09:03:36;4.20;;;1.70;;
63114;SDS011;49208;50.874;6.466;2022-08-03T09:06:02;5.35;;;1.40;;
63114;SDS011;49208;50.874;6.466;2022-08-03T09:08:29;7.05;;;1.85;;
63114;SDS011;49208;50.874;6.466;2022-08-03T09:10:56;8.18;;;2.15;;
63114;SDS011;49208;50.874;6.466;2022-08-03T09:13:21;4.03;;;1.73;;
63114;SDS011;49208;50.874;6.466;2022-08-03T09:15:46;5.03;;;1.30;;
63114;SDS011;49208;50.874;6.466;2022-08-03T09:18:22;4.50;;;1.70;;
63114;SDS011;49208;50.874;6.466;2022-08-03T09:20:53;3.80;;;1.50;;
63114;SDS011;49208;50.874;6.466;2022-08-03T09:23:50;8.95;;;1.60;;
63114;SDS011;49208;50.874;6.466;2022-08-03T09:26:21;6.50;;;1.70;;
63114;SDS011;49208;50.874;6.466;2022-08-03T09:28:55;4.90;;;1.80;;
63114;SDS011;49208;50.874;6.466;2022-08-03T09:31:30;5.88;;;1.55;;
63114;SDS011;49208;50.874;6.466;2022-08-03T09:34:01;3.40;;;1.50;;
63114;SDS011;49208;50.874;6.466;2022-08-03T09:36:38;5.13;;;1.60;;
63114;SDS011;49208;50.874;6.466;2022-08-03T09:39:06;4.78;;;1.60;;
63114;SDS011;49208;50.874;6.466;2022-08-03T09:41:35;5.15;;;1.80;;
63114;SDS011;49208;50.874;6.466;2022-08-03T09:44:02;5.90;;;1.73;;
63114;SDS011;49208;50.874;6.466;2022-08-03T09:46:27;7.43;;;1.70;;
63114;SDS011;49208;50.874;6.466;2022-08-03T09:49:07;5.88;;;1.63;;
63114;SDS011;49208;50.874;6.466;2022-08-03T09:51:34;7.68;;;1.88;;
63114;SDS011;49208;50.874;6.466;2022-08-03T09:54:00;4.35;;;1.70;;
63114;SDS011;49208;50.874;6.466;2022-08-03T09:56:43;7.00;;;1.60;;
63114;SDS011;49208;50.874;6.466;2022-08-03T09:59:11;4.97;;;1.60;;
63114;SDS011;49208;50.874;6.466;2022-08-03T10:01:38;3.97;;;1.50;;
63114;SDS011;49208;50.874;6.466;2022-08-03T10:04:11;5.43;;;1.83;;
63114;SDS011;49208;50.874;6.466;2022-08-03T10:06:42;5.75;;;1.80;;
63114;SDS011;49208;50.874;6.466;2022-08-03T10:09:13;3.53;;;1.77;;
63114;SDS011;49208;50.874;6.466;2022-08-03T10:11:41;5.78;;;1.42;;
63114;SDS011;49208;50.874;6.466;2022-08-03T10:14:11;5.40;;;1.30;;
63114;SDS011;49208;50.874;6.466;2022-08-03T10:16:43;7.40;;;1.60;;
63114;SDS011;49208;50.874;6.466;2022-08-03T10:19:10;7.60;;;1.50;;
63114;SDS011;49208;50.874;6.466;2022-08-03T10:21:38;6.38;;;1.50;;
63114;SDS011;49208;50.874;6.466;2022-08-03T10:24:06;3.92;;;1.60;;
63114;SDS011;49208;50.874;6.466;2022-08-03T10:26:35;4.13;;;1.65;;
63114;SDS011;49208;50.874;6.466;2022-08-03T10:29:03;4.50;;;1.70;;
63114;SDS011;49208;50.874;6.466;2022-08-03T10:31:43;3.38;;;1.60;;
63114;SDS011;49208;50.874;6.466;2022-08-03T10:34:14;4.45;;;1.50;;
63114;SDS011;49208;50.874;6.466;2022-08-03T10:36:42;4.05;;;1.70;;
63114;SDS011;49208;50.874;6.466;2022-08-03T10:39:09;3.15;;;1.17;;
63114;SDS011;49208;50.874;6.466;2022-08-03T10:41:38;5.57;;;1.23;;
63114;SDS011;49208;50.874;6.466;2022-08-03T10:44:12;4.70;;;1.50;;
63114;SDS011;49208;50.874;6.466;2022-08-03T10:46:42;3.25;;;1.27;;
63114;SDS011;49208;50.874;6.466;2022-08-03T10:49:10;5.10;;;1.70;;
63114;SDS011;49208;50.874;6.466;2022-08-03T10:51:37;4.38;;;1.30;;
63114;SDS011;49208;50.874;6.466;2022-08-03T10:54:03;3.95;;;1.20;;
63114;SDS011;49208;50.874;6.466;2022-08-03T10:59:15;4.13;;;1.55;;
63114;SDS011;49208;50.874;6.466;2022-08-03T11:02:02;4.97;;;1.60;;
63114;SDS011;49208;50.874;6.466;2022-08-03T11:04:27;5.55;;;1.48;;
63114;SDS011;49208;50.874;6.466;2022-08-03T11:07:35;4.72;;;1.23;;
63114;SDS011;49208;50.874;6.466;2022-08-03T11:09:45;2.97;;;1.23;;
63114;SDS011;49208;50.874;6.466;2022-08-03T11:12:22;4.20;;;1.38;;
63114;SDS011;49208;50.874;6.466;2022-08-03T11:14:50;7.40;;;1.90;;
63114;SDS011;49208;50.874;6.466;2022-08-03T11:17:17;5.50;;;1.40;;
63114;SDS011;49208;50.874;6.466;2022-08-03T11:22:09;5.80;;;1.45;;
63114;SDS011;49208;50.874;6.466;2022-08-03T11:38:08;3.45;;;1.30;;
63114;SDS011;49208;50.874;6.466;2022-08-03T11:41:10;5.10;;;1.35;;
63114;SDS011;49208;50.874;6.466;2022-08-03T11:48:20;3.30;;;1.30;;
63114;SDS011;49208;50.874;6.466;2022-08-03T11:50:46;2.92;;;1.50;;
63114;SDS011;49208;50.874;6.466;2022-08-03T11:53:15;5.37;;;1.70;;
63114;SDS011;49208;50.874;6.466;2022-08-03T11:55:43;3.80;;;1.40;;
63114;SDS011;49208;50.874;6.466;2022-08-03T11:58:16;3.70;;;1.33;;
63114;SDS011;49208;50.874;6.466;2022-08-03T12:00:42;4.30;;;1.33;;
63114;SDS011;49208;50.874;6.466;2022-08-03T12:03:12;4.53;;;1.40;;
63114;SDS011;49208;50.874;6.466;2022-08-03T12:05:51;4.47;;;1.50;;
63114;SDS011;49208;50.874;6.466;2022-08-03T12:08:39;4.10;;;1.60;;
63114;SDS011;49208;50.874;6.466;2022-08-03T12:11:04;4.55;;;1.50;;
63114;SDS011;49208;50.874;6.466;2022-08-03T12:13:36;3.30;;;1.60;;
63114;SDS011;49208;50.874;6.466;2022-08-03T12:16:05;5.03;;;1.50;;
63114;SDS011;49208;50.874;6.466;2022-08-03T12:18:31;3.60;;;1.70;;
63114;SDS011;49208;50.874;6.466;2022-08-03T12:21:07;5.57;;;1.30;;
63114;SDS011;49208;50.874;6.466;2022-08-03T12:23:34;4.78;;;1.30;;
63114;SDS011;49208;50.874;6.466;2022-08-03T12:26:03;7.32;;;1.58;;
63114;SDS011;49208;50.874;6.466;2022-08-03T12:28:31;2.55;;;1.20;;
63114;SDS011;49208;50.874;6.466;2022-08-03T12:31:00;3.33;;;1.30;;
63114;SDS011;49208;50.874;6.466;2022-08-03T12:33:27;5.47;;;1.60;;
63114;SDS011;49208;50.874;6.466;2022-08-03T12:36:09;5.57;;;1.50;;
63114;SDS011;49208;50.874;6.466;2022-08-03T12:38:36;4.53;;;1.45;;
63114;SDS011;49208;50.874;6.466;2022-08-03T12:41:04;5.22;;;1.70;;
63114;SDS011;49208;50.874;6.466;2022-08-03T12:43:37;3.22;;;1.55;;
63114;SDS011;49208;50.874;6.466;2022-08-03T12:46:13;6.05;;;1.30;;
63114;SDS011;49208;50.874;6.466;2022-08-03T12:51:31;2.75;;;1.30;;
63114;SDS011;49208;50.874;6.466;2022-08-03T12:53:57;3.25;;;1.30;;
63114;SDS011;49208;50.874;6.466;2022-08-03T12:56:24;3.40;;;1.83;;
63114;SDS011;49208;50.874;6.466;2022-08-03T12:58:49;3.70;;;1.48;;
63114;SDS011;49208;50.874;6.466;2022-08-03T13:01:15;5.35;;;1.50;;
63114;SDS011;49208;50.874;6.466;2022-08-03T13:03:42;4.78;;;1.40;;
63114;SDS011;49208;50.874;6.466;2022-08-03T13:06:14;3.67;;;1.77;;
63114;SDS011;49208;50.874;6.466;2022-08-03T13:08:41;3.65;;;1.33;;
63114;SDS011;49208;50.874;6.466;2022-08-03T13:11:20;5.88;;;1.45;;
63114;SDS011;49208;50.874;6.466;2022-08-03T13:13:50;3.88;;;1.65;;
63114;SDS011;49208;50.874;6.466;2022-08-03T13:16:16;4.97;;;1.50;;
63114;SDS011;49208;50.874;6.466;2022-08-03T13:18:42;4.60;;;1.35;;
63114;SDS011;49208;50.874;6.466;2022-08-03T13:21:11;3.58;;;1.30;;
63114;SDS011;49208;50.874;6.466;2022-08-03T13:23:37;4.32;;;1.52;;
63114;SDS011;49208;50.874;6.466;2022-08-03T13:26:03;5.10;;;1.43;;
63114;SDS011;49208;50.874;6.466;2022-08-03T13:28:28;6.67;;;1.63;;
63114;SDS011;49208;50.874;6.466;2022-08-03T13:30:53;4.83;;;1.30;;
63114;SDS011;49208;50.874;6.466;2022-08-03T13:33:19;4.40;;;1.35;;
63114;SDS011;49208;50.874;6.466;2022-08-03T13:35:44;4.50;;;1.30;;
63114;SDS011;49208;50.874;6.466;2022-08-03T13:38:10;5.03;;;1.60;;
63114;SDS011;49208;50.874;6.466;2022-08-03T13:40:35;4.33;;;1.30;;
63114;SDS011;49208;50.874;6.466;2022-08-03T13:43:02;3.22;;;1.25;;
63114;SDS011;49208;50.874;6.466;2022-08-03T13:45:27;5.18;;;1.50;;
63114;SDS011;49208;50.874;6.466;2022-08-03T13:47:53;4.07;;;1.50;;
63114;SDS011;49208;50.874;6.466;2022-08-03T13:50:18;4.53;;;1.60;;
63114;SDS011;49208;50.874;6.466;2022-08-03T13:52:44;4.37;;;1.33;;
63114;SDS011;49208;50.874;6.466;2022-08-03T13:55:10;3.97;;;1.38;;
63114;SDS011;49208;50.874;6.466;2022-08-03T13:57:36;13.23;;;1.95;;
63114;SDS011;49208;50.874;6.466;2022-08-03T14:00:02;5.47;;;1.30;;
63114;SDS011;49208;50.874;6.466;2022-08-03T14:02:29;4.85;;;1.38;;
63114;SDS011;49208;50.874;6.466;2022-08-03T14:04:54;3.37;;;1.63;;
63114;SDS011;49208;50.874;6.466;2022-08-03T14:07:20;5.63;;;1.40;;
63114;SDS011;49208;50.874;6.466;2022-08-03T14:09:45;4.23;;;1.33;;
63114;SDS011;49208;50.874;6.466;2022-08-03T14:12:11;5.47;;;2.73;;
63114;SDS011;49208;50.874;6.466;2022-08-03T14:14:36;4.03;;;2.43;;
63114;SDS011;49208;50.874;6.466;2022-08-03T14:17:02;5.47;;;2.07;;
63114;SDS011;49208;50.874;6.466;2022-08-03T14:19:27;3.63;;;1.80;;
63114;SDS011;49208;50.874;6.466;2022-08-03T14:21:53;4.17;;;1.33;;
63114;SDS011;49208;50.874;6.466;2022-08-03T14:24:18;2.77;;;1.30;;
63114;SDS011;49208;50.874;6.466;2022-08-03T14:26:43;3.73;;;1.33;;
63114;SDS011;49208;50.874;6.466;2022-08-03T14:29:09;3.80;;;1.37;;
63114;SDS011;49208;50.874;6.466;2022-08-03T14:31:35;2.33;;;1.20;;
63114;SDS011;49208;50.874;6.466;2022-08-03T14:34:01;5.03;;;1.25;;
63114;SDS011;49208;50.874;6.466;2022-08-03T14:36:26;5.17;;;2.57;;
63114;SDS011;49208;50.874;6.466;2022-08-03T14:38:51;2.90;;;1.30;;
63114;SDS011;49208;50.874;6.466;2022-08-03T14:41:17;3.57;;;1.23;;
63114;SDS011;49208;50.874;6.466;2022-08-03T14:43:42;2.65;;;1.20;;
63114;SDS011;49208;50.874;6.466;2022-08-03T14:46:08;5.43;;;1.30;;
63114;SDS011;49208;50.874;6.466;2022-08-03T14:48:33;2.43;;;1.30;;
63114;SDS011;49208;50.874;6.466;2022-08-03T14:50:59;2.77;;;1.20;;
63114;SDS011;49208;50.874;6.466;2022-08-03T14:53:24;3.25;;;1.23;;
63114;SDS011;49208;50.874;6.466;2022-08-03T14:55:50;5.10;;;1.30;;
63114;SDS011;49208;50.874;6.466;2022-08-03T14:58:23;3.13;;;0.90;;
63114;SDS011;49208;50.874;6.466;2022-08-03T15:00:50;6.28;;;1.20;;
63114;SDS011;49208;50.874;6.466;2022-08-03T15:03:17;2.75;;;1.27;;
63114;SDS011;49208;50.874;6.466;2022-08-03T15:05:46;6.22;;;1.25;;
63114;SDS011;49208;50.874;6.466;2022-08-03T15:08:12;3.07;;;1.17;;
63114;SDS011;49208;50.874;6.466;2022-08-03T15:10:38;3.30;;;1.00;;
63114;SDS011;49208;50.874;6.466;2022-08-03T15:13:03;5.32;;;1.38;;
63114;SDS011;49208;50.874;6.466;2022-08-03T15:15:28;4.73;;;1.23;;
63114;SDS011;49208;50.874;6.466;2022-08-03T15:17:54;3.50;;;1.43;;
63114;SDS011;49208;50.874;6.466;2022-08-03T15:20:19;4.73;;;1.40;;
63114;SDS011;49208;50.874;6.466;2022-08-03T15:22:45;4.27;;;1.30;;
63114;SDS011;49208;50.874;6.466;2022-08-03T15:25:10;3.90;;;1.30;;
63114;SDS011;49208;50.874;6.466;2022-08-03T15:27:36;3.17;;;1.30;;
63114;SDS011;49208;50.874;6.466;2022-08-03T15:30:02;4.20;;;1.27;;
63114;SDS011;49208;50.874;6.466;2022-08-03T15:32:30;6.13;;;1.40;;
63114;SDS011;49208;50.874;6.466;2022-08-03T15:34:56;5.85;;;1.27;;
63114;SDS011;49208;50.874;6.466;2022-08-03T15:37:21;3.07;;;1.03;;
63114;SDS011;49208;50.874;6.466;2022-08-03T15:39:49;2.90;;;1.15;;
63114;SDS011;49208;50.874;6.466;2022-08-03T15:42:15;4.43;;;1.40;;
63114;SDS011;49208;50.874;6.466;2022-08-03T15:44:40;4.13;;;1.03;;
63114;SDS011;49208;50.874;6.466;2022-08-03T15:47:05;3.90;;;1.37;;
63114;SDS011;49208;50.874;6.466;2022-08-03T15:49:31;2.73;;;1.27;;
63114;SDS011;49208;50.874;6.466;2022-08-03T15:51:56;2.30;;;1.10;;
63114;SDS011;49208;50.874;6.466;2022-08-03T15:54:21;4.50;;;1.40;;
63114;SDS011;49208;50.874;6.466;2022-08-03T15:56:47;4.43;;;1.00;;
63114;SDS011;49208;50.874;6.466;2022-08-03T15:59:12;3.73;;;1.10;;